Time;durP1;ratioP1;P1;durP2;ratioP2;P2;SDS_P1;SDS_P2;PMS_P1;PMS_P2;Temp;Humidity;BMP_temperature;BMP_pressure;BME280_temperature;BME280_humidity;BME280_pressure;Samples;Min_cycle;Max_cycle;Signal;HPM_P1;HPM_P2
2021/12/24 00:01:58;;;;;;;7.18;5.45;;;9.10;99.90;;;;;;5028712;28;20112;-77
2021/12/24 00:04:24;;;;;;;8.45;5.55;;;9.10;99.90;;;;;;5028617;28;20116;-77
2021/12/24 00:06:51;;;;;;;9.48;5.55;;;9.10;99.90;;;;;;5029567;28;20025;-77
2021/12/24 00:09:22;;;;;;;6.60;5.13;;;9.00;99.90;;;;;;5028313;28;20026;-77
2021/12/24 00:11:55;;;;;;;6.88;4.68;;;9.00;99.90;;;;;;5028617;28;20028;-77
2021/12/24 00:14:23;;;;;;;6.90;4.63;;;9.00;99.90;;;;;;5026134;28;20030;-77
2021/12/24 00:16:53;;;;;;;7.18;5.20;;;9.00;99.90;;;;;;5029047;28;20078;-77
2021/12/24 00:19:37;;;;;;;9.18;4.60;;;8.90;99.90;;;;;;5028698;28;20033;-77
2021/12/24 00:35:45;;;;;;;7.65;4.55;;;8.80;99.90;;;;;;5031461;28;20147;-76
2021/12/24 00:38:11;;;;;;;7.10;4.60;;;8.80;99.90;;;;;;5032058;28;20030;-77
2021/12/24 00:40:40;;;;;;;7.30;5.20;;;8.80;99.90;;;;;;5031014;28;20036;-77
2021/12/24 00:43:06;;;;;;;7.43;4.72;;;8.80;99.90;;;;;;5032837;28;20178;-77
2021/12/24 00:45:35;;;;;;;7.45;5.20;;;8.90;99.90;;;;;;5032935;28;20527;-77
2021/12/24 00:48:02;;;;;;;8.10;4.75;;;8.90;99.90;;;;;;5031937;28;20109;-77
2021/12/24 00:50:34;;;;;;;6.13;4.75;;;8.90;99.90;;;;;;5031907;28;20398;-77
2021/12/24 00:55:02;;;;;;;6.20;4.32;;;8.90;99.90;;;;;;5032330;28;20030;-77
2021/12/24 00:55:48;;;;;;;7.70;4.88;;;8.90;99.90;;;;;;5032138;28;20037;-78
2021/12/24 00:58:14;;;;;;;7.65;4.88;;;8.90;99.90;;;;;;5031757;28;20030;-78
2021/12/24 01:00:40;;;;;;;6.63;4.97;;;8.80;99.90;;;;;;5033443;28;20376;-78
2021/12/24 01:03:08;;;;;;;7.25;4.95;;;8.90;99.90;;;;;;5031613;28;20025;-77
2021/12/24 01:05:36;;;;;;;7.68;5.05;;;8.90;99.90;;;;;;5031486;28;20072;-77
2021/12/24 01:08:03;;;;;;;7.88;4.97;;;8.80;99.90;;;;;;5031187;28;20025;-77
2021/12/24 01:10:35;;;;;;;7.55;5.18;;;8.80;99.90;;;;;;5031711;28;20028;-77
2021/12/24 01:13:02;;;;;;;7.82;5.22;;;8.90;99.90;;;;;;5031744;28;20112;-77
2021/12/24 01:15:29;;;;;;;6.93;4.13;;;8.90;99.90;;;;;;5032013;28;20292;-77
2021/12/24 01:18:36;;;;;;;8.95;5.13;;;8.80;99.90;;;;;;5031925;28;20018;-77
2021/12/24 01:20:52;;;;;;;7.18;4.45;;;8.90;99.90;;;;;;5029887;28;20051;-77
2021/12/24 01:23:41;;;;;;;7.22;4.57;;;8.90;99.90;;;;;;5029803;28;20029;-77
2021/12/24 01:26:11;;;;;;;7.43;4.28;;;8.80;99.90;;;;;;5030987;28;20048;-77
2021/12/24 01:39:40;;;;;;;7.80;5.50;;;8.80;99.90;;;;;;5032148;28;20121;-77
2021/12/24 01:44:51;;;;;;;9.90;6.07;;;8.90;99.90;;;;;;5030608;28;20068;-78
2021/12/24 01:47:17;;;;;;;8.48;5.38;;;8.80;99.90;;;;;;5030015;28;20056;-77
2021/12/24 01:49:43;;;;;;;9.98;5.88;;;8.90;99.90;;;;;;5022477;28;20494;-77
2021/12/24 01:52:09;;;;;;;10.43;5.63;;;8.80;99.90;;;;;;5031577;28;20071;-77
2021/12/24 01:54:35;;;;;;;9.57;6.55;;;8.80;99.90;;;;;;5030881;28;20026;-78
2021/12/24 01:57:01;;;;;;;9.25;5.85;;;8.70;99.90;;;;;;5030501;28;20041;-78
2021/12/24 01:59:26;;;;;;;7.53;5.50;;;8.60;99.90;;;;;;5029147;28;20025;-77
2021/12/24 02:01:52;;;;;;;10.13;5.55;;;8.60;99.90;;;;;;5030759;28;20033;-77
2021/12/24 02:04:19;;;;;;;7.38;4.82;;;8.60;99.90;;;;;;5028960;28;20423;-77
2021/12/24 02:06:46;;;;;;;9.05;5.50;;;8.60;99.90;;;;;;5032148;28;20171;-77
2021/12/24 02:09:12;;;;;;;9.55;5.18;;;8.60;99.90;;;;;;5030166;28;20030;-77
2021/12/24 02:11:41;;;;;;;8.07;5.30;;;8.70;99.90;;;;;;5030290;28;20052;-77
2021/12/24 02:14:12;;;;;;;7.32;5.50;;;8.70;99.90;;;;;;5029013;28;20061;-77
2021/12/24 02:16:54;;;;;;;7.13;5.13;;;8.80;99.90;;;;;;5030591;28;20029;-77
2021/12/24 02:30:19;;;;;;;9.52;5.72;;;8.80;99.90;;;;;;5030088;28;20037;-77
2021/12/24 02:32:45;;;;;;;7.57;5.25;;;8.80;99.90;;;;;;5030618;28;20014;-77
2021/12/24 02:35:11;;;;;;;8.57;5.32;;;8.80;99.90;;;;;;5028465;28;20036;-77
2021/12/24 02:37:37;;;;;;;8.48;5.38;;;8.80;99.90;;;;;;5029599;28;20059;-77
2021/12/24 02:40:07;;;;;;;7.07;5.22;;;8.80;99.90;;;;;;5029182;28;20124;-77
2021/12/24 02:42:35;;;;;;;9.48;5.50;;;8.80;99.90;;;;;;5031090;28;20100;-77
2021/12/24 02:45:01;;;;;;;7.35;5.00;;;8.70;99.90;;;;;;5029628;28;20045;-77
2021/12/24 02:48:48;;;;;;;11.50;6.60;;;8.70;99.90;;;;;;5028737;28;20036;-77
2021/12/24 02:55:32;;;;;;;10.02;6.30;;;8.70;99.90;;;;;;5029932;28;20457;-77
2021/12/24 02:57:58;;;;;;;8.30;4.72;;;8.80;99.90;;;;;;5030172;28;20116;-77
2021/12/24 03:00:27;;;;;;;8.82;6.10;;;8.70;99.90;;;;;;5030630;28;20022;-77
2021/12/24 03:02:54;;;;;;;9.60;5.70;;;8.80;99.90;;;;;;5029405;28;20028;-77
2021/12/24 03:05:22;;;;;;;8.38;5.90;;;8.80;99.90;;;;;;5029136;28;20030;-78
2021/12/24 03:07:48;;;;;;;9.00;5.97;;;8.80;99.90;;;;;;5028850;28;20064;-77
2021/12/24 03:10:19;;;;;;;8.45;5.18;;;8.80;99.90;;;;;;5029588;28;20034;-77
2021/12/24 03:12:48;;;;;;;6.75;4.63;;;8.80;99.90;;;;;;5031129;28;20075;-77
2021/12/24 03:15:15;;;;;;;7.40;4.95;;;8.80;99.90;;;;;;5029245;28;20043;-77
2021/12/24 03:17:47;;;;;;;6.93;4.80;;;8.80;99.90;;;;;;5029202;28;20063;-78
2021/12/24 03:20:13;;;;;;;;;;;8.80;99.90;;;;;;5028364;28;20506;-78
2021/12/24 03:25:05;;;;;;;7.03;4.15;;;8.70;99.90;;;;;;5029586;28;20560;-77
2021/12/24 03:27:31;;;;;;;9.05;4.75;;;8.60;99.90;;;;;;5029189;28;20025;-77
2021/12/24 03:29:58;;;;;;;6.25;4.22;;;8.60;99.90;;;;;;5029247;28;20018;-78
2021/12/24 03:32:24;;;;;;;6.90;4.30;;;8.60;99.90;;;;;;5029182;28;20025;-77
2021/12/24 03:34:50;;;;;;;7.78;4.60;;;8.60;99.90;;;;;;5029085;28;20014;-77
2021/12/24 03:37:16;;;;;;;6.68;4.32;;;8.60;99.90;;;;;;5028696;28;20056;-77
2021/12/24 03:39:42;;;;;;;7.20;3.92;;;8.60;99.90;;;;;;5030419;28;20061;-77
2021/12/24 03:42:08;;;;;;;6.47;4.63;;;8.50;99.90;;;;;;5027668;28;20101;-77
2021/12/24 03:44:42;;;;;;;6.60;4.60;;;8.50;99.90;;;;;;5028715;28;20065;-77
2021/12/24 03:47:12;;;;;;;8.10;4.68;;;8.50;99.90;;;;;;5028583;28;20104;-77
2021/12/24 03:49:52;;;;;;;6.68;4.95;;;8.50;99.90;;;;;;5029073;28;20518;-77
2021/12/24 03:54:58;;;;;;;7.13;4.88;;;8.50;99.90;;;;;;5030218;28;20018;-77
2021/12/24 03:57:29;;;;;;;6.35;4.47;;;8.50;99.90;;;;;;5029408;28;20030;-78
2021/12/24 03:59:57;;;;;;;8.77;5.67;;;8.60;99.90;;;;;;5028598;28;20025;-77
2021/12/24 04:02:23;;;;;;;7.15;4.45;;;8.60;99.90;;;;;;5028707;28;20813;-77
2021/12/24 04:04:49;;;;;;;6.80;4.82;;;8.60;99.90;;;;;;5028569;28;20068;-77
2021/12/24 04:07:15;;;;;;;5.63;4.07;;;8.50;99.90;;;;;;5026584;28;20572;-77
2021/12/24 04:10:23;;;;;;;8.02;4.63;;;8.50;99.90;;;;;;5027950;28;20037;-77
2021/12/24 04:12:34;;;;;;;7.60;4.72;;;8.50;99.90;;;;;;5028649;28;20580;-77
2021/12/24 04:15:01;;;;;;;7.22;4.40;;;8.60;99.90;;;;;;5028332;28;20084;-77
2021/12/24 04:17:31;;;;;;;7.43;4.90;;;8.50;99.90;;;;;;5028494;28;20053;-77
2021/12/24 04:25:28;;;;;;;6.20;4.80;;;8.30;99.90;;;;;;5028544;28;20041;-78
2021/12/24 04:27:58;;;;;;;8.57;4.93;;;8.30;99.90;;;;;;5030261;28;20024;-77
2021/12/24 04:30:29;;;;;;;8.77;4.88;;;8.40;99.90;;;;;;5027660;28;20026;-78
2021/12/24 04:33:04;;;;;;;7.25;4.70;;;8.40;99.90;;;;;;5028360;28;20099;-77
2021/12/24 04:35:39;;;;;;;7.55;4.90;;;8.30;99.90;;;;;;5027781;28;20030;-77
2021/12/24 04:51:37;;;;;;;7.65;4.95;;;8.10;99.90;;;;;;5029365;28;20035;-77
2021/12/24 05:02:43;;;;;;;8.90;5.50;;;8.00;99.90;;;;;;5027902;28;20579;-77
2021/12/24 05:06:01;;;;;;;8.07;4.63;;;7.90;99.90;;;;;;5027818;28;20032;-77
2021/12/24 05:08:16;;;;;;;7.22;4.40;;;8.00;99.90;;;;;;5024584;28;20037;-77
2021/12/24 05:10:42;;;;;;;8.18;4.65;;;8.10;99.90;;;;;;5027724;28;20022;-77
2021/12/24 05:13:13;;;;;;;7.18;4.68;;;8.10;99.90;;;;;;5028315;28;20112;-77
2021/12/24 05:15:40;;;;;;;7.43;4.77;;;7.90;99.90;;;;;;5029380;28;20100;-77
2021/12/24 05:23:19;;;;;;;7.82;5.32;;;8.00;99.90;;;;;;5031273;28;20117;-77
2021/12/24 05:25:47;;;;;;;7.72;5.32;;;7.90;99.90;;;;;;5029372;28;20029;-77
2021/12/24 05:28:14;;;;;;;8.45;4.60;;;7.90;99.90;;;;;;5031676;28;20028;-77
2021/12/24 05:30:41;;;;;;;7.18;4.75;;;7.80;99.90;;;;;;5031316;28;20026;-77
2021/12/24 05:33:11;;;;;;;8.27;4.78;;;7.90;99.90;;;;;;5030944;28;20037;-77
2021/12/24 05:35:37;;;;;;;8.63;5.00;;;7.80;99.90;;;;;;5029717;28;20026;-77
2021/12/24 05:38:03;;;;;;;7.45;4.65;;;7.90;99.90;;;;;;5030508;28;20044;-77
2021/12/24 05:40:29;;;;;;;7.55;4.75;;;7.80;99.90;;;;;;5031150;28;20514;-77
2021/12/24 05:42:54;;;;;;;9.35;5.57;;;7.80;99.90;;;;;;5032488;28;20021;-77
2021/12/24 05:45:23;;;;;;;8.52;5.05;;;7.90;99.90;;;;;;5030849;28;20077;-77
2021/12/24 05:47:49;;;;;;;9.48;5.15;;;7.90;99.90;;;;;;5029535;28;20040;-77
2021/12/24 05:50:15;;;;;;;10.13;5.32;;;8.00;99.90;;;;;;5029516;28;20025;-77
2021/12/24 05:52:41;;;;;;;7.45;5.10;;;8.00;99.90;;;;;;5030902;28;20415;-77
2021/12/24 05:55:07;;;;;;;8.88;5.40;;;8.00;99.90;;;;;;5031313;28;20056;-77
2021/12/24 05:57:33;;;;;;;10.00;5.25;;;7.90;99.90;;;;;;5031060;28;20040;-77
2021/12/24 05:59:59;;;;;;;9.52;4.95;;;7.90;99.90;;;;;;5030958;28;20491;-77
2021/12/24 06:02:25;;;;;;;9.20;5.40;;;7.90;99.90;;;;;;5030317;28;20033;-77
2021/12/24 06:04:50;;;;;;;6.85;4.88;;;7.90;99.90;;;;;;5030469;28;20022;-77
2021/12/24 06:07:16;;;;;;;9.43;5.60;;;7.80;99.90;;;;;;5030124;28;20113;-77
2021/12/24 06:09:41;;;;;;;9.50;5.88;;;7.90;99.90;;;;;;5031876;28;20025;-77
2021/12/24 06:12:07;;;;;;;7.95;4.60;;;7.90;99.90;;;;;;5030214;28;20480;-77
2021/12/24 06:14:33;;;;;;;9.18;5.15;;;7.90;99.90;;;;;;5029346;28;20396;-77
2021/12/24 06:17:02;;;;;;;8.68;5.53;;;8.00;99.90;;;;;;5030220;28;20034;-77
2021/12/24 06:19:28;;;;;;;11.07;6.30;;;8.10;99.90;;;;;;5030995;28;20101;-77
2021/12/24 06:21:55;;;;;;;8.98;5.72;;;8.20;99.90;;;;;;5030927;28;20060;-77
2021/12/24 06:24:20;;;;;;;9.70;5.30;;;8.30;99.90;;;;;;5030205;28;20026;-77
2021/12/24 06:26:47;;;;;;;12.65;5.88;;;8.30;99.90;;;;;;5030004;28;20087;-77
2021/12/24 06:29:13;;;;;;;8.13;5.43;;;8.30;99.90;;;;;;5029788;28;20121;-77
2021/12/24 06:31:39;;;;;;;7.95;5.15;;;8.30;99.90;;;;;;5029788;28;20171;-77
2021/12/24 06:34:05;;;;;;;8.48;5.45;;;8.50;99.90;;;;;;5030885;28;20014;-77
2021/12/24 06:36:34;;;;;;;8.95;5.70;;;8.40;99.90;;;;;;5031367;28;20510;-77
2021/12/24 06:39:01;;;;;;;8.38;5.10;;;8.40;99.90;;;;;;5029704;28;20017;-77
2021/12/24 06:41:26;;;;;;;7.45;5.30;;;8.40;99.90;;;;;;5029996;28;20490;-77
2021/12/24 06:43:52;;;;;;;9.75;5.28;;;8.40;99.90;;;;;;5029614;28;20098;-77
2021/12/24 06:46:18;;;;;;;9.65;5.25;;;8.40;99.90;;;;;;5029535;28;20622;-77
2021/12/24 06:48:45;;;;;;;7.50;5.03;;;8.50;99.90;;;;;;5031458;28;20139;-77
2021/12/24 06:51:11;;;;;;;7.25;5.00;;;8.40;99.90;;;;;;5028351;28;20032;-77
2021/12/24 06:53:37;;;;;;;8.77;5.43;;;8.40;99.90;;;;;;5029687;28;20021;-77
2021/12/24 06:56:03;;;;;;;9.75;5.50;;;8.40;99.90;;;;;;5029215;28;20035;-77
2021/12/24 06:58:29;;;;;;;7.47;5.57;;;8.40;99.90;;;;;;5029756;28;20033;-77
2021/12/24 07:00:55;;;;;;;9.98;5.82;;;8.40;99.90;;;;;;5031516;28;20033;-77
2021/12/24 07:03:20;;;;;;;9.15;5.25;;;8.40;99.90;;;;;;5029468;28;20026;-77
2021/12/24 07:05:46;;;;;;;6.38;4.50;;;8.40;99.90;;;;;;5029552;28;20491;-77
2021/12/24 07:08:12;;;;;;;7.32;5.15;;;8.40;99.90;;;;;;5028815;28;20067;-77
2021/12/24 07:10:37;;;;;;;8.57;5.63;;;8.40;99.90;;;;;;5029355;28;20080;-77
2021/12/24 07:13:03;;;;;;;7.88;5.45;;;8.40;99.90;;;;;;5029489;28;20049;-77
2021/12/24 07:15:29;;;;;;;7.53;4.47;;;8.40;99.90;;;;;;5029969;28;20026;-77
2021/12/24 07:17:54;;;;;;;7.18;4.43;;;8.30;99.90;;;;;;5029348;28;20533;-77
2021/12/24 07:20:20;;;;;;;8.60;5.38;;;8.30;99.90;;;;;;5029125;28;20109;-77
2021/12/24 07:22:46;;;;;;;7.95;5.07;;;8.40;99.90;;;;;;5027993;28;20453;-77
2021/12/24 07:25:12;;;;;;;9.25;5.60;;;8.30;99.90;;;;;;5028657;28;20048;-77
2021/12/24 07:27:38;;;;;;;7.50;4.50;;;8.30;99.90;;;;;;5030072;28;20108;-77
2021/12/24 07:30:08;;;;;;;9.25;5.22;;;8.20;99.90;;;;;;5028816;28;20566;-77
2021/12/24 07:32:33;;;;;;;9.57;5.00;;;8.10;99.90;;;;;;5029065;28;20020;-78
2021/12/24 07:34:59;;;;;;;6.45;4.32;;;8.20;99.90;;;;;;5028787;28;20403;-78
2021/12/24 07:37:25;;;;;;;7.28;4.45;;;8.20;99.90;;;;;;5028414;28;20120;-77
2021/12/24 07:39:50;;;;;;;8.43;4.50;;;8.20;99.90;;;;;;5030827;28;20556;-77
2021/12/24 07:42:16;;;;;;;7.70;4.43;;;8.20;99.90;;;;;;5028653;28;20532;-78
2021/12/24 07:44:42;;;;;;;6.40;4.32;;;8.20;99.90;;;;;;5027974;28;20446;-77
2021/12/24 07:47:15;;;;;;;6.43;4.75;;;8.20;99.90;;;;;;5027490;28;20116;-77
2021/12/24 07:49:43;;;;;;;7.28;4.05;;;8.30;99.90;;;;;;5028595;28;20555;-77
2021/12/24 07:52:11;;;;;;;6.72;4.43;;;8.30;99.90;;;;;;5028984;28;20022;-77
2021/12/24 07:54:41;;;;;;;8.52;4.75;;;8.30;99.90;;;;;;5030175;28;20044;-77
2021/12/24 07:57:09;;;;;;;7.07;4.60;;;8.30;99.90;;;;;;5028651;28;20037;-77
2021/12/24 07:59:37;;;;;;;7.55;5.05;;;8.40;99.90;;;;;;5028309;28;20272;-77
2021/12/24 08:02:06;;;;;;;7.15;3.78;;;8.40;99.90;;;;;;5028172;28;20033;-78
2021/12/24 08:04:32;;;;;;;7.07;4.25;;;8.40;99.90;;;;;;5028617;28;20076;-77
2021/12/24 08:07:01;;;;;;;6.25;4.63;;;8.50;99.90;;;;;;5030162;28;20495;-78
2021/12/24 08:09:26;;;;;;;9.60;5.70;;;8.60;99.90;;;;;;5029261;28;20151;-78
2021/12/24 08:11:52;;;;;;;6.95;4.53;;;8.60;99.90;;;;;;5028570;28;20101;-78
2021/12/24 08:14:18;;;;;;;6.97;4.60;;;8.60;99.90;;;;;;5028119;28;20111;-78
2021/12/24 08:16:44;;;;;;;6.82;4.40;;;8.60;99.90;;;;;;5026149;28;20396;-78
2021/12/24 08:19:10;;;;;;;7.53;4.97;;;8.70;99.90;;;;;;5027429;28;20562;-78
2021/12/24 08:21:36;;;;;;;8.13;4.97;;;8.80;99.90;;;;;;5024763;28;20509;-77
2021/12/24 08:24:02;;;;;;;6.68;4.25;;;8.80;99.90;;;;;;5027368;28;20026;-78
2021/12/24 08:26:29;;;;;;;7.78;4.57;;;8.80;99.90;;;;;;5026783;28;20037;-78
2021/12/24 08:28:55;;;;;;;5.75;4.05;;;8.80;99.90;;;;;;5027672;28;20573;-77
2021/12/24 08:31:21;;;;;;;7.22;5.00;;;8.90;99.90;;;;;;5028271;28;20052;-78
2021/12/24 08:33:47;;;;;;;6.35;4.80;;;8.90;99.90;;;;;;5030059;28;20594;-77
2021/12/24 08:36:13;;;;;;;8.38;4.90;;;8.90;99.90;;;;;;5028261;28;20515;-76
2021/12/24 08:38:39;;;;;;;7.60;4.97;;;8.80;99.90;;;;;;5027531;28;20022;-77
2021/12/24 08:41:05;;;;;;;7.72;4.97;;;8.90;99.90;;;;;;5028063;28;20041;-76
2021/12/24 08:43:31;;;;;;;8.20;4.85;;;9.00;99.90;;;;;;5028065;28;20045;-76
2021/12/24 08:45:57;;;;;;;7.68;4.60;;;9.00;99.90;;;;;;5028841;28;20523;-75
2021/12/24 08:48:22;;;;;;;11.73;4.63;;;9.30;99.90;;;;;;5027852;28;20475;-76
2021/12/24 08:50:49;;;;;;;10.00;5.22;;;9.40;99.90;;;;;;5027012;28;20026;-75
2021/12/24 08:53:16;;;;;;;8.05;4.93;;;9.50;99.90;;;;;;5028076;28;20034;-75
2021/12/24 08:55:41;;;;;;;8.23;5.50;;;9.50;99.90;;;;;;5029877;28;20083;-74
2021/12/24 08:58:08;;;;;;;7.20;4.97;;;9.50;99.90;;;;;;5032252;28;20022;-76
2021/12/24 09:00:35;;;;;;;6.65;4.47;;;9.60;99.90;;;;;;5032818;28;20057;-76
2021/12/24 09:03:02;;;;;;;6.57;4.45;;;9.60;99.90;;;;;;5030259;28;20029;-76
2021/12/24 09:05:28;;;;;;;7.30;5.13;;;9.60;99.90;;;;;;5030973;28;20017;-77
2021/12/24 09:07:54;;;;;;;7.20;4.80;;;9.70;99.90;;;;;;5030092;28;20510;-76
2021/12/24 09:10:20;;;;;;;9.52;6.38;;;9.80;99.90;;;;;;5031056;28;20029;-76
2021/12/24 09:12:46;;;;;;;7.78;4.63;;;9.80;99.90;;;;;;5032159;28;20049;-77
2021/12/24 09:15:13;;;;;;;8.05;5.15;;;9.90;99.90;;;;;;5031560;28;20510;-78
2021/12/24 09:17:44;;;;;;;8.57;5.05;;;10.00;99.90;;;;;;5032039;28;20069;-74
2021/12/24 09:20:17;;;;;;;7.38;4.68;;;10.00;99.90;;;;;;5031128;28;20033;-76
2021/12/24 09:22:43;;;;;;;9.95;5.32;;;10.00;99.90;;;;;;5030876;28;20036;-74
2021/12/24 09:25:10;;;;;;;8.75;5.38;;;10.10;99.90;;;;;;5030627;28;20030;-74
2021/12/24 09:27:37;;;;;;;9.10;5.65;;;10.20;99.90;;;;;;5032434;28;20025;-74
2021/12/24 09:30:04;;;;;;;8.98;5.25;;;10.30;99.90;;;;;;5030755;28;20026;-74
2021/12/24 09:32:30;;;;;;;7.97;5.32;;;10.30;99.90;;;;;;5031043;28;20026;-74
2021/12/24 09:34:57;;;;;;;7.85;5.32;;;10.40;99.90;;;;;;5028284;28;20060;-74
2021/12/24 09:37:22;;;;;;;9.85;6.20;;;10.40;99.90;;;;;;5020113;28;20060;-74
2021/12/24 09:39:48;;;;;;;8.50;5.18;;;10.40;99.90;;;;;;5031435;28;20484;-74
2021/12/24 09:42:14;;;;;;;6.70;5.03;;;10.30;99.90;;;;;;5030230;28;20033;-74
2021/12/24 09:44:39;;;;;;;8.00;5.47;;;10.10;99.90;;;;;;5029357;28;20084;-75
2021/12/24 09:47:06;;;;;;;9.25;5.95;;;10.10;99.90;;;;;;5029896;28;20022;-75
2021/12/24 09:49:32;;;;;;;7.85;5.45;;;10.10;99.90;;;;;;5028350;28;20032;-74
2021/12/24 09:52:00;;;;;;;8.57;5.47;;;10.10;99.90;;;;;;5032067;28;20501;-75
2021/12/24 09:54:25;;;;;;;7.47;5.13;;;10.10;99.90;;;;;;5031034;28;20029;-74
2021/12/24 09:56:54;;;;;;;8.68;5.65;;;10.10;99.90;;;;;;5030490;28;20125;-74
2021/12/24 09:59:20;;;;;;;7.90;5.47;;;10.20;99.90;;;;;;5030632;28;20033;-75
2021/12/24 10:01:58;;;;;;;9.95;6.28;;;10.30;99.90;;;;;;5030848;28;20021;-75
2021/12/24 10:04:30;;;;;;;9.85;6.07;;;10.50;99.90;;;;;;5029295;28;20485;-74
2021/12/24 10:06:59;;;;;;;9.05;5.88;;;10.70;99.90;;;;;;5030083;28;20033;-75
2021/12/24 10:09:37;;;;;;;12.10;6.40;;;10.80;99.90;;;;;;5030318;28;20029;-75
2021/12/24 10:12:09;;;;;;;9.25;5.65;;;10.80;99.90;;;;;;5029025;28;20021;-75
2021/12/24 10:14:41;;;;;;;9.40;5.47;;;10.80;99.90;;;;;;5029686;28;20027;-74
2021/12/24 10:17:20;;;;;;;8.93;5.03;;;10.90;99.90;;;;;;5029740;28;20025;-75
2021/12/24 10:19:49;;;;;;;8.50;5.35;;;10.90;99.90;;;;;;5029605;28;20195;-75
2021/12/24 10:22:15;;;;;;;10.10;6.43;;;11.10;99.90;;;;;;5029803;28;20025;-75
2021/12/24 10:24:41;;;;;;;7.68;5.10;;;11.20;99.90;;;;;;5031384;28;20052;-75
2021/12/24 10:27:07;;;;;;;9.38;5.68;;;11.40;99.90;;;;;;5029633;28;20030;-75
2021/12/24 10:29:39;;;;;;;8.32;5.45;;;11.40;99.90;;;;;;5029254;28;20036;-77
2021/12/24 10:32:15;;;;;;;8.40;5.55;;;11.50;99.90;;;;;;5029490;28;20017;-77
2021/12/24 10:34:43;;;;;;;9.27;6.18;;;11.60;99.90;;;;;;5029687;28;20095;-77
2021/12/24 10:37:11;;;;;;;10.73;6.15;;;11.70;99.90;;;;;;5029805;28;20034;-78
2021/12/24 10:39:36;;;;;;;11.05;6.18;;;11.80;99.90;;;;;;5028936;28;20590;-78
2021/12/24 10:42:06;;;;;;;12.05;6.07;;;11.90;99.90;;;;;;5029092;28;20108;-78
2021/12/24 10:44:35;;;;;;;10.43;5.82;;;11.90;99.90;;;;;;5030007;28;20110;-78
2021/12/24 10:47:04;;;;;;;10.07;6.25;;;12.00;99.90;;;;;;5029408;28;20021;-79
2021/12/24 10:49:50;;;;;;;10.18;6.55;;;12.10;99.90;;;;;;5027966;28;20533;-78
2021/12/24 10:54:51;;;;;;;9.18;6.10;;;12.10;99.90;;;;;;5031236;28;20570;-78
2021/12/24 10:57:19;;;;;;;12.50;7.13;;;12.10;99.90;;;;;;5028352;28;20038;-78
2021/12/24 10:59:49;;;;;;;9.63;6.57;;;12.10;99.90;;;;;;5029125;28;20025;-78
2021/12/24 11:02:16;;;;;;;8.85;6.13;;;12.00;99.90;;;;;;5028163;28;20113;-78
2021/12/24 11:04:42;;;;;;;12.35;7.15;;;12.00;99.90;;;;;;5027809;28;20030;-78
2021/12/24 11:07:32;;;;;;;8.73;6.30;;;12.00;99.90;;;;;;5027801;28;20141;-78
2021/12/24 11:10:12;;;;;;;10.25;6.65;;;12.00;99.90;;;;;;5024546;28;20034;-79
2021/12/24 11:12:47;;;;;;;10.18;6.75;;;12.10;99.90;;;;;;5030671;28;20512;-78
2021/12/24 11:15:24;;;;;;;10.55;6.75;;;12.20;99.90;;;;;;5027975;28;20068;-78
2021/12/24 11:17:52;;;;;;;9.82;5.85;;;12.30;99.90;;;;;;5028659;28;20029;-78
2021/12/24 11:20:18;;;;;;;9.55;6.03;;;12.30;99.90;;;;;;5029066;28;20029;-78
2021/12/24 11:23:09;;;;;;;8.95;6.18;;;12.30;99.90;;;;;;5028414;28;20021;-78
2021/12/24 11:25:39;;;;;;;7.47;5.43;;;12.30;99.90;;;;;;5027535;28;20044;-78
2021/12/24 11:28:06;;;;;;;8.32;5.25;;;12.50;99.90;;;;;;5029192;28;20030;-78
2021/12/24 11:30:34;;;;;;;11.75;6.28;;;12.50;99.90;;;;;;5030099;28;20048;-78
2021/12/24 11:33:00;;;;;;;8.63;5.70;;;12.60;99.90;;;;;;5028806;28;20021;-78
2021/12/24 11:35:27;;;;;;;7.13;5.35;;;12.50;99.90;;;;;;5028848;28;20030;-75
2021/12/24 11:37:54;;;;;;;9.05;5.57;;;12.30;99.90;;;;;;5027645;28;20121;-76
2021/12/24 11:40:24;;;;;;;9.85;6.15;;;12.20;99.90;;;;;;5027203;28;20033;-76
2021/12/24 11:43:03;;;;;;;11.68;6.20;;;12.10;99.90;;;;;;5030174;28;20263;-76
2021/12/24 11:45:29;;;;;;;8.30;5.85;;;12.00;99.90;;;;;;5031492;28;20058;-74
2021/12/24 11:47:56;;;;;;;9.82;6.20;;;12.00;99.90;;;;;;5026306;28;20061;-74
2021/12/24 11:50:25;;;;;;;8.98;5.50;;;12.00;99.90;;;;;;5034241;28;20053;-75
2021/12/24 11:52:55;;;;;;;9.70;5.78;;;12.10;99.90;;;;;;5031304;28;20032;-75
2021/12/24 11:55:24;;;;;;;9.82;6.05;;;12.10;99.90;;;;;;5032237;28;20029;-74
2021/12/24 11:57:53;;;;;;;8.30;5.57;;;12.20;99.90;;;;;;5032218;28;20048;-74
2021/12/24 12:00:40;;;;;;;9.68;6.00;;;12.30;99.90;;;;;;5027818;28;20041;-75
2021/12/24 12:03:08;;;;;;;7.60;5.13;;;12.20;99.90;;;;;;5026891;28;20029;-76
2021/12/24 12:05:39;;;;;;;16.33;7.00;;;12.20;99.90;;;;;;5026940;28;20037;-76
2021/12/24 12:08:29;;;;;;;10.57;5.53;;;12.10;99.90;;;;;;5027650;28;20029;-75
2021/12/24 12:11:14;;;;;;;10.63;6.28;;;12.30;99.90;;;;;;5023480;28;20029;-75
2021/12/24 12:13:46;;;;;;;10.23;5.72;;;12.30;99.90;;;;;;5027831;28;20053;-75
2021/12/24 12:16:33;;;;;;;10.38;6.40;;;12.40;99.90;;;;;;5028797;28;20040;-75
2021/12/24 12:19:32;;;;;;;13.40;6.75;;;12.40;99.90;;;;;;5024552;28;20034;-76
2021/12/24 12:25:12;;;;;;;8.35;5.97;;;12.60;99.90;;;;;;4987038;28;20421;-75
2021/12/24 12:27:46;;;;;;;8.82;5.40;;;12.40;99.90;;;;;;4987785;28;20034;-75
2021/12/24 12:30:19;;;;;;;7.95;5.47;;;12.40;99.90;;;;;;4987450;28;20038;-75
2021/12/24 12:32:45;;;;;;;10.73;6.22;;;12.50;99.90;;;;;;4990319;28;20105;-75
2021/12/24 12:35:12;;;;;;;10.30;6.18;;;12.20;99.90;;;;;;4973765;28;20035;-74
2021/12/24 12:37:56;;;;;;;7.88;5.80;;;12.10;99.90;;;;;;4974269;28;20551;-75
2021/12/24 12:40:21;;;;;;;9.10;6.65;;;12.00;99.90;;;;;;4990789;28;20042;-75
2021/12/24 12:42:54;;;;;;;12.15;6.50;;;12.10;99.90;;;;;;4975749;28;20026;-75
2021/12/24 12:45:38;;;;;;;9.65;5.82;;;12.10;99.90;;;;;;4990361;28;20366;-75
2021/12/24 12:48:07;;;;;;;9.23;6.13;;;12.10;99.90;;;;;;4989312;28;20070;-75
2021/12/24 12:50:34;;;;;;;11.63;6.30;;;12.10;99.90;;;;;;4990049;28;20109;-75
2021/12/24 12:53:21;;;;;;;9.07;5.85;;;12.10;99.90;;;;;;4985341;28;20026;-76
2021/12/24 12:55:47;;;;;;;8.93;5.95;;;12.10;99.90;;;;;;5006699;28;20049;-76
2021/12/24 12:58:21;;;;;;;9.25;5.97;;;12.20;99.90;;;;;;4989879;28;20121;-75
2021/12/24 13:01:20;;;;;;;12.27;7.20;;;12.10;99.90;;;;;;5015138;28;20033;-76
2021/12/24 13:03:58;;;;;;;10.05;6.35;;;12.30;99.90;;;;;;5025469;28;20038;-74
2021/12/24 13:06:24;;;;;;;11.38;6.97;;;12.40;99.90;;;;;;5031519;28;20035;-74
2021/12/24 13:08:51;;;;;;;8.27;5.15;;;12.50;99.90;;;;;;5030752;28;20557;-73
2021/12/24 13:11:20;;;;;;;10.55;6.68;;;12.50;99.90;;;;;;5022407;28;20042;-74
2021/12/24 13:13:56;;;;;;;12.18;6.38;;;12.50;99.90;;;;;;5032581;28;20060;-75
2021/12/24 13:16:32;;;;;;;11.35;6.68;;;12.50;99.90;;;;;;5039522;28;20037;-75
2021/12/24 13:19:19;;;;;;;9.25;5.80;;;12.50;99.90;;;;;;5030795;28;20095;-75
2021/12/24 13:24:48;;;;;;;10.93;6.45;;;12.80;99.90;;;;;;5032488;28;20111;-76
2021/12/24 13:27:15;;;;;;;10.60;6.97;;;12.70;99.90;;;;;;5034300;28;20021;-76
2021/12/24 13:29:41;;;;;;;12.63;7.57;;;12.50;99.90;;;;;;5030840;28;20026;-77
2021/12/24 13:32:07;;;;;;;13.88;7.97;;;12.10;99.90;;;;;;5031510;28;20040;-76
2021/12/24 13:34:33;;;;;;;11.85;6.90;;;12.10;99.90;;;;;;5038031;28;20064;-76
2021/12/24 13:37:10;;;;;;;12.07;7.20;;;11.90;99.90;;;;;;5034649;28;20499;-76
2021/12/24 13:39:45;;;;;;;11.27;6.80;;;11.90;99.90;;;;;;5031345;28;20053;-76
2021/12/24 13:42:11;;;;;;;11.35;7.25;;;11.90;99.90;;;;;;5029512;28;20025;-76
2021/12/24 13:44:38;;;;;;;12.00;6.88;;;11.90;99.90;;;;;;5031301;28;20048;-76
2021/12/24 13:47:21;;;;;;;11.13;6.93;;;12.00;99.90;;;;;;5039773;28;20521;-76
2021/12/24 13:55:26;;;;;;;12.93;7.70;;;11.80;99.90;;;;;;5031494;28;20027;-78
2021/12/24 13:57:56;;;;;;;12.32;7.45;;;11.90;99.90;;;;;;5039076;28;20064;-78
2021/12/24 14:00:23;;;;;;;14.27;7.80;;;11.80;99.90;;;;;;5030791;28;20053;-79
2021/12/24 14:02:59;;;;;;;11.27;7.13;;;11.80;99.90;;;;;;5030111;28;20479;-79
2021/12/24 14:05:26;;;;;;;11.60;7.50;;;11.90;99.90;;;;;;5032206;28;20072;-80
2021/12/24 14:08:11;;;;;;;13.75;7.45;;;11.80;99.90;;;;;;5029456;28;20666;-79
2021/12/24 14:10:38;;;;;;;11.38;7.57;;;11.80;99.90;;;;;;5028386;28;20112;-79
2021/12/24 14:13:43;;;;;;;12.43;7.93;;;11.80;99.90;;;;;;5030015;28;20026;-79
2021/12/24 14:16:36;;;;;;;13.70;7.30;;;11.70;99.90;;;;;;5031923;28;20033;-79
2021/12/24 14:19:16;;;;;;;11.80;7.10;;;11.80;99.90;;;;;;5029168;28;20021;-79
2021/12/24 14:21:46;;;;;;;11.68;7.15;;;11.80;99.90;;;;;;5031980;28;20022;-78
2021/12/24 14:24:17;;;;;;;12.40;7.50;;;11.70;99.90;;;;;;5028869;28;20036;-79
2021/12/24 14:26:57;;;;;;;;;;;11.60;99.90;;;;;;5031177;28;20030;-80
2021/12/24 14:29:25;;;;;;;14.45;8.65;;;11.50;99.90;;;;;;5027459;28;19924;-78
2021/12/24 14:32:00;;;;;;;13.65;8.15;;;11.50;99.90;;;;;;5028834;28;20029;-79
2021/12/24 14:34:29;;;;;;;13.55;8.13;;;11.40;99.90;;;;;;5030018;28;20033;-80
2021/12/24 14:37:02;;;;;;;12.98;8.00;;;11.40;99.90;;;;;;5038970;28;20037;-79
2021/12/24 14:39:43;;;;;;;11.10;7.25;;;11.40;99.90;;;;;;5028541;28;20704;-79